createdAt,value
2022-10-18T00:00:54.120Z,82.76
2022-10-18T00:03:56.994Z,82.85
2022-10-18T00:07:00.157Z,83.15
2022-10-18T00:10:04.583Z,83.49
2022-10-18T00:13:07.042Z,83.49
2022-10-18T00:16:15.445Z,83.51
2022-10-18T00:19:18.083Z,83.57
2022-10-18T00:22:23.655Z,83.60
2022-10-18T00:25:26.135Z,83.61
2022-10-18T00:28:29.040Z,83.54
2022-10-18T00:31:33.923Z,83.69
2022-10-18T00:34:38.399Z,83.73
2022-10-18T00:37:40.984Z,84.01
2022-10-18T00:40:43.994Z,84.11
2022-10-18T00:43:52.761Z,84.36
2022-10-18T00:47:03.375Z,84.56
2022-10-18T00:50:07.333Z,84.45
2022-10-18T00:53:14.704Z,84.29
2022-10-18T00:56:17.559Z,84.38
2022-10-18T00:59:20.916Z,84.43
2022-10-18T01:02:24.157Z,84.55
2022-10-18T01:05:27.184Z,84.82
2022-10-18T01:08:32.966Z,84.79
2022-10-18T01:11:54.049Z,84.74
2022-10-18T01:15:27.144Z,84.72
2022-10-18T01:18:43.728Z,85.05
2022-10-18T01:21:55.458Z,84.87
2022-10-18T01:25:08.221Z,85.05
2022-10-18T01:28:30.710Z,85.07
2022-10-18T01:31:38.598Z,85.44
2022-10-18T01:34:42.689Z,85.78
2022-10-18T01:37:47.671Z,86.06
2022-10-18T01:40:50.837Z,86.49
2022-10-18T01:43:57.537Z,86.58
2022-10-18T01:47:00.128Z,86.67
2022-10-18T01:50:05.851Z,86.58
2022-10-18T01:53:22.262Z,86.63
2022-10-18T01:56:35.802Z,86.57
2022-10-18T01:59:44.117Z,86.82
2022-10-18T02:03:15.180Z,86.64
2022-10-18T02:06:27.277Z,86.86
2022-10-18T02:09:38.576Z,86.98
2022-10-18T02:12:43.666Z,87.08
2022-10-18T02:15:52.056Z,87.14
2022-10-18T02:18:59.648Z,87.12
2022-10-18T02:22:02.290Z,87.15
2022-10-18T02:25:09.904Z,87.30
2022-10-18T02:28:12.708Z,87.48
2022-10-18T02:31:20.430Z,87.53
2022-10-18T02:34:24.913Z,87.51
2022-10-18T02:37:35.308Z,87.62
2022-10-18T02:40:37.825Z,87.69
2022-10-18T02:43:40.631Z,87.68
2022-10-18T02:46:43.165Z,87.80
2022-10-18T02:49:45.974Z,87.96
2022-10-18T02:52:48.455Z,87.88
2022-10-18T02:55:51.195Z,88.21
2022-10-18T02:58:53.690Z,88.29
2022-10-18T03:01:59.058Z,88.58
2022-10-18T03:05:01.583Z,88.56
2022-10-18T03:08:04.753Z,88.66
2022-10-18T03:11:07.330Z,88.90
2022-10-18T03:14:10.164Z,88.94
2022-10-18T03:17:12.875Z,88.87
2022-10-18T03:20:15.912Z,88.96
2022-10-18T03:23:18.392Z,89.26
2022-10-18T03:26:21.688Z,89.33
2022-10-18T03:29:24.153Z,89.58
2022-10-18T03:32:26.896Z,89.71
2022-10-18T03:35:29.440Z,89.85
2022-10-18T03:38:32.761Z,90.06
2022-10-18T03:41:35.321Z,90.12
2022-10-18T03:44:38.046Z,90.38
2022-10-18T03:47:40.520Z,90.54
2022-10-18T03:50:43.830Z,90.70
2022-10-18T03:53:46.544Z,90.87
2022-10-18T03:56:49.263Z,91.07
2022-10-18T03:59:51.760Z,91.04
2022-10-18T04:02:55.974Z,91.19
2022-10-18T04:06:00.759Z,91.20
2022-10-18T04:09:06.525Z,91.63
2022-10-18T04:12:12.254Z,91.55
2022-10-18T04:15:14.749Z,91.72
2022-10-18T04:18:17.624Z,91.42
2022-10-18T04:21:20.343Z,91.86
2022-10-18T04:24:23.123Z,91.85
2022-10-18T04:27:25.743Z,91.28
2022-10-18T04:30:28.852Z,91.32
2022-10-18T04:33:31.498Z,91.36
2022-10-18T04:36:34.321Z,91.49
2022-10-18T04:39:36.763Z,91.71
2022-10-18T04:42:39.853Z,91.75
2022-10-18T04:45:45.545Z,91.77
2022-10-18T04:48:48.458Z,91.86
2022-10-18T04:51:51.071Z,91.84
2022-10-18T04:54:53.822Z,91.61
2022-10-18T04:57:56.240Z,91.54
2022-10-18T05:00:59.775Z,91.46
2022-10-18T05:04:02.479Z,91.38
2022-10-18T05:07:06.648Z,91.18
2022-10-18T05:10:09.750Z,91.69
2022-10-18T05:13:12.663Z,91.85
2022-10-18T05:16:16.081Z,92.49
2022-10-18T05:19:18.910Z,92.02
2022-10-18T05:22:21.421Z,92.01
2022-10-18T05:25:24.722Z,91.82
2022-10-18T05:28:39.613Z,88.41
2022-10-18T05:31:43.566Z,88.82
2022-10-18T05:34:46.142Z,89.81
2022-10-18T05:37:48.949Z,90.88
2022-10-18T05:40:53.149Z,92.10
2022-10-18T05:43:55.936Z,93.00
2022-10-18T05:46:58.373Z,93.85
2022-10-18T05:50:01.246Z,94.44
2022-10-18T05:53:12.581Z,94.28
2022-10-18T05:56:21.220Z,94.22
2022-10-18T05:59:23.882Z,94.29
2022-10-18T06:02:26.713Z,94.21
2022-10-18T06:05:29.528Z,94.76
2022-10-18T06:08:32.562Z,95.26
2022-10-18T06:11:36.463Z,95.38
2022-10-18T06:14:38.901Z,95.68
2022-10-18T06:17:41.646Z,95.62
2022-10-18T06:20:44.749Z,95.58
2022-10-18T06:23:56.594Z,95.98
2022-10-18T06:26:59.134Z,96.20
2022-10-18T06:30:02.215Z,96.10
2022-10-18T06:33:05.512Z,95.42
2022-10-18T06:36:11.806Z,94.76
2022-10-18T06:39:14.319Z,94.17
2022-10-18T06:42:19.136Z,93.38
2022-10-18T06:45:24.343Z,92.67
2022-10-18T06:48:27.074Z,92.25
2022-10-18T06:51:29.594Z,91.54
2022-10-18T06:54:32.323Z,91.08
2022-10-18T06:57:34.749Z,90.59
2022-10-18T07:00:37.591Z,90.02
2022-10-18T07:03:40.125Z,89.01
2022-10-18T07:06:42.896Z,86.20
2022-10-18T07:09:46.137Z,84.08
2022-10-18T07:12:48.961Z,79.83
2022-10-18T07:16:14.267Z,75.99
2022-10-18T07:19:20.339Z,73.93
2022-10-18T07:22:24.996Z,73.25
2022-10-18T07:25:31.436Z,71.12
2022-10-18T07:28:34.736Z,69.39
2022-10-18T07:31:41.048Z,69.15
2022-10-18T07:34:43.611Z,69.87
2022-10-18T07:37:46.376Z,68.65
2022-10-18T07:40:49.050Z,69.66
2022-10-18T07:43:52.982Z,69.51
2022-10-18T07:46:55.603Z,68.23
2022-10-18T07:50:02.419Z,67.17
2022-10-18T07:53:05.101Z,66.31
2022-10-18T07:56:16.720Z,66.38
2022-10-18T07:59:19.264Z,65.35
2022-10-18T08:02:23.474Z,65.21
2022-10-18T08:05:27.554Z,65.41
2022-10-18T08:08:30.485Z,65.06
2022-10-18T08:11:33.799Z,65.33
2022-10-18T08:14:36.284Z,64.13
2022-10-18T08:17:39.179Z,64.24
2022-10-18T08:20:45.738Z,63.93
2022-10-18T08:23:48.797Z,64.32
2022-10-18T08:26:51.250Z,63.14
2022-10-18T08:29:54.209Z,62.81
2022-10-18T08:32:56.667Z,62.57
2022-10-18T08:36:01.074Z,62.17
2022-10-18T08:39:03.518Z,61.50
2022-10-18T08:42:17.598Z,59.61
2022-10-18T08:45:37.338Z,57.97
2022-10-18T08:48:49.219Z,57.39
2022-10-18T08:51:52.311Z,54.87
2022-10-18T08:55:13.751Z,54.93
2022-10-18T08:58:20.961Z,52.88
2022-10-18T09:01:52.938Z,51.10
2022-10-18T09:05:46.611Z,51.80
2022-10-18T09:09:20.504Z,49.00
2022-10-18T09:12:40.178Z,47.68
2022-10-18T09:15:51.805Z,46.40
2022-10-18T09:19:03.251Z,44.93
2022-10-18T09:22:14.850Z,44.82
2022-10-18T09:25:19.017Z,44.72
2022-10-18T09:28:40.735Z,43.88
2022-10-18T09:31:56.861Z,43.72
2022-10-18T09:35:14.349Z,42.78
2022-10-18T09:38:20.723Z,42.01
2022-10-18T09:41:26.948Z,41.62
2022-10-18T09:44:36.237Z,39.67
2022-10-18T09:47:45.727Z,39.50
2022-10-18T09:50:55.278Z,38.21
2022-10-18T09:54:29.360Z,36.78
2022-10-18T09:57:41.547Z,35.39
2022-10-18T10:00:48.622Z,33.49
2022-10-18T10:03:51.841Z,33.38
2022-10-18T10:06:56.157Z,33.55
2022-10-18T10:10:25.489Z,32.19
2022-10-18T10:13:28.019Z,31.48
2022-10-18T10:16:30.702Z,31.08
2022-10-18T10:19:35.803Z,30.28
2022-10-18T10:22:40.234Z,30.20
2022-10-18T10:25:43.297Z,30.37
2022-10-18T10:28:49.971Z,30.33
2022-10-18T10:32:03.552Z,29.89
2022-10-18T10:35:52.676Z,29.75
2022-10-18T10:39:19.494Z,29.48
2022-10-18T10:42:22.357Z,27.74
2022-10-18T10:45:26.314Z,28.15
2022-10-18T10:48:33.569Z,27.69
2022-10-18T10:51:38.632Z,27.49
2022-10-18T10:54:46.486Z,27.45
2022-10-18T10:57:52.999Z,27.05
2022-10-18T11:00:57.528Z,26.61
2022-10-18T11:04:04.060Z,26.77
2022-10-18T11:07:30.325Z,26.45
2022-10-18T11:10:35.269Z,25.64
2022-10-18T11:14:01.588Z,25.47
2022-10-18T11:17:35.948Z,25.45
2022-10-18T11:20:48.126Z,25.21
2022-10-18T11:23:50.818Z,25.72
2022-10-18T11:27:08.778Z,26.52
2022-10-18T11:30:44.262Z,25.38
2022-10-18T11:34:10.289Z,25.17
2022-10-18T11:38:01.120Z,25.11
2022-10-18T11:41:22.522Z,25.32
2022-10-18T11:44:34.147Z,25.03
2022-10-18T11:47:45.025Z,24.71
2022-10-18T11:51:04.782Z,24.75
2022-10-18T11:54:20.281Z,24.71
2022-10-18T11:57:41.792Z,24.19
2022-10-18T12:00:57.357Z,23.50
2022-10-18T12:04:24.023Z,23.01
2022-10-18T12:07:35.057Z,25.56
2022-10-18T12:10:53.016Z,23.75
2022-10-18T12:14:10.831Z,23.36
2022-10-18T12:17:51.425Z,23.17
2022-10-18T12:20:56.659Z,25.11
2022-10-18T12:24:09.148Z,26.43
2022-10-18T12:27:13.922Z,27.52
2022-10-18T12:30:35.075Z,28.04
2022-10-18T12:33:45.245Z,28.03
2022-10-18T12:36:56.501Z,28.69
2022-10-18T12:40:11.402Z,28.96
2022-10-18T12:43:21.780Z,29.06
2022-10-18T12:46:24.378Z,28.71
2022-10-18T12:49:33.266Z,28.70
2022-10-18T12:52:37.153Z,28.80
2022-10-18T12:58:49.737Z,27.22
2022-10-18T13:01:55.418Z,28.56
2022-10-18T13:08:27.797Z,27.26
2022-10-18T13:11:33.359Z,28.12
2022-10-18T13:14:49.387Z,27.64
2022-10-18T13:18:16.219Z,27.98
2022-10-18T13:21:28.063Z,28.67
2022-10-18T13:25:13.963Z,28.66
2022-10-18T13:28:44.853Z,28.82
2022-10-18T13:31:55.261Z,29.19
2022-10-18T13:34:58.075Z,29.44
2022-10-18T13:38:00.578Z,29.13
2022-10-18T13:41:07.760Z,29.39
2022-10-18T13:44:22.524Z,30.64
2022-10-18T13:47:33.843Z,30.44
2022-10-18T13:50:38.281Z,29.99
2022-10-18T13:53:57.264Z,29.90
2022-10-18T13:57:15.495Z,32.25
2022-10-18T14:00:22.070Z,31.94
2022-10-18T14:07:02.381Z,31.82
2022-10-18T14:10:10.339Z,32.49
2022-10-18T14:13:21.859Z,33.83
2022-10-18T14:16:28.101Z,33.78
2022-10-18T14:19:41.150Z,34.94
2022-10-18T14:22:48.784Z,33.89
2022-10-18T14:25:51.356Z,34.17
2022-10-18T14:29:07.774Z,34.21
2022-10-18T14:32:18.640Z,33.91
2022-10-18T14:35:32.999Z,32.83
2022-10-18T14:38:37.935Z,34.67
2022-10-18T14:41:52.414Z,34.50
2022-10-18T14:44:56.439Z,34.47
2022-10-18T14:48:15.694Z,35.27
2022-10-18T14:51:18.997Z,38.42
2022-10-18T14:54:31.932Z,38.40
2022-10-18T14:57:36.631Z,36.89
2022-10-18T15:00:41.099Z,37.61
2022-10-18T15:03:45.584Z,37.77
2022-10-18T15:06:48.952Z,39.64
2022-10-18T15:09:51.606Z,38.27
2022-10-18T15:13:09.167Z,40.68
2022-10-18T15:16:17.583Z,40.73
2022-10-18T15:19:34.237Z,40.68
2022-10-18T15:22:36.997Z,42.55
2022-10-18T15:25:39.828Z,44.23
2022-10-18T15:28:52.832Z,44.93
2022-10-18T15:31:56.486Z,46.08
2022-10-18T15:35:13.550Z,46.48
2022-10-18T15:38:24.736Z,47.07
2022-10-18T15:41:38.487Z,47.71
2022-10-18T15:44:49.497Z,48.37
2022-10-18T15:48:02.879Z,49.31
2022-10-18T15:51:07.859Z,50.16
2022-10-18T15:54:17.926Z,50.51
2022-10-18T15:57:20.812Z,50.82
2022-10-18T16:00:25.316Z,51.22
2022-10-18T16:03:28.718Z,51.16
2022-10-18T16:06:32.368Z,53.54
2022-10-18T16:09:35.286Z,54.74
2022-10-18T16:12:37.810Z,53.95
2022-10-18T16:15:40.771Z,53.98
2022-10-18T16:18:43.279Z,54.56
2022-10-18T16:21:46.050Z,54.49
2022-10-18T16:24:48.458Z,54.86
2022-10-18T16:27:51.200Z,55.17
2022-10-18T16:30:59.521Z,54.75
2022-10-18T16:34:02.691Z,54.85
2022-10-18T16:37:05.138Z,55.66
2022-10-18T16:40:36.527Z,55.90
2022-10-18T16:43:45.508Z,56.28
2022-10-18T16:46:51.076Z,56.81
2022-10-18T16:49:56.431Z,56.50
2022-10-18T16:52:59.165Z,56.27
2022-10-18T16:56:02.815Z,56.24
2022-10-18T16:59:05.879Z,56.46
2022-10-18T17:02:09.296Z,56.98
2022-10-18T17:05:12.106Z,57.52
2022-10-18T17:08:21.918Z,58.77
2022-10-18T17:11:27.257Z,58.29
2022-10-18T17:14:29.812Z,57.50
2022-10-18T17:17:32.763Z,57.79
2022-10-18T17:20:36.556Z,57.48
2022-10-18T17:23:39.454Z,57.86
2022-10-18T17:26:41.937Z,58.04
2022-10-18T17:29:44.722Z,57.43
2022-10-18T17:32:47.215Z,58.53
2022-10-18T17:35:49.981Z,58.57
2022-10-18T17:38:55.752Z,58.56
2022-10-18T17:41:58.819Z,58.75
2022-10-18T17:45:01.314Z,59.50
2022-10-18T17:48:04.133Z,60.03
2022-10-18T17:51:12.550Z,60.25
2022-10-18T17:54:15.329Z,59.85
2022-10-18T17:57:18.180Z,59.99
2022-10-18T18:00:24.568Z,59.89
2022-10-18T18:03:27.482Z,60.73
2022-10-18T18:06:34.059Z,61.12
2022-10-18T18:09:36.865Z,61.71
2022-10-18T18:12:39.356Z,61.37
2022-10-18T18:15:42.114Z,61.27
2022-10-18T18:18:45.350Z,61.02
2022-10-18T18:21:48.539Z,62.87
2022-10-18T18:24:51.081Z,60.54
2022-10-18T18:27:54.419Z,59.91
2022-10-18T18:31:07.152Z,60.32
2022-10-18T18:34:10.513Z,60.95
2022-10-18T18:37:12.950Z,61.58
2022-10-18T18:40:16.950Z,62.08
2022-10-18T18:43:23.239Z,61.94
2022-10-18T18:46:28.083Z,61.90
2022-10-18T18:49:31.499Z,62.66
2022-10-18T18:52:34.696Z,63.38
2022-10-18T18:55:39.764Z,64.11
2022-10-18T18:58:44.178Z,65.21
2022-10-18T19:01:46.738Z,64.47
2022-10-18T19:04:50.756Z,64.15
2022-10-18T19:07:53.373Z,64.23
2022-10-18T19:10:57.678Z,65.73
2022-10-18T19:14:01.375Z,65.00
2022-10-18T19:17:07.141Z,64.94
2022-10-18T19:20:12.699Z,65.22
2022-10-18T19:23:15.794Z,64.89
2022-10-18T19:26:37.456Z,64.56
2022-10-18T19:29:43.878Z,64.55
2022-10-18T19:32:47.733Z,64.94
2022-10-18T19:35:50.901Z,65.04
2022-10-18T19:38:53.427Z,64.74
2022-10-18T19:41:58.554Z,64.78
2022-10-18T19:45:01.046Z,65.62
2022-10-18T19:48:04.118Z,65.30
2022-10-18T19:51:09.362Z,65.56
2022-10-18T19:54:13.446Z,65.88
2022-10-18T19:57:15.892Z,66.03
2022-10-18T20:00:19.681Z,66.51
2022-10-18T20:03:23.658Z,66.13
2022-10-18T20:06:26.524Z,66.15
2022-10-18T20:09:29.782Z,66.32
2022-10-18T20:12:32.652Z,66.45
2022-10-18T20:15:35.672Z,66.51
2022-10-18T20:18:38.713Z,66.46
2022-10-18T20:21:41.547Z,66.38
2022-10-18T20:24:44.193Z,66.52
2022-10-18T20:27:47.003Z,66.64
2022-10-18T20:31:03.461Z,66.66
2022-10-18T20:34:08.533Z,67.10
2022-10-18T20:37:11.035Z,67.43
2022-10-18T20:40:14.562Z,67.37
2022-10-18T20:43:17.086Z,67.46
2022-10-18T20:46:20.618Z,68.02
2022-10-18T20:49:23.266Z,68.38
2022-10-18T20:52:26.070Z,68.81
2022-10-18T20:55:29.099Z,68.55
2022-10-18T20:58:32.537Z,68.18
2022-10-18T21:01:36.070Z,68.01
2022-10-18T21:04:43.324Z,68.65
2022-10-18T21:07:45.906Z,69.13
2022-10-18T21:10:49.889Z,69.28
2022-10-18T21:13:53.941Z,69.63
2022-10-18T21:16:56.838Z,69.61
2022-10-18T21:20:01.001Z,69.49
2022-10-18T21:23:03.714Z,69.74
2022-10-18T21:26:06.807Z,70.00
2022-10-18T21:29:10.781Z,70.09
2022-10-18T21:32:13.406Z,70.07
2022-10-18T21:35:16.235Z,70.30
2022-10-18T21:38:18.837Z,71.06
2022-10-18T21:41:22.922Z,71.45
2022-10-18T21:44:25.546Z,71.17
2022-10-18T21:47:28.362Z,71.02
2022-10-18T21:50:31.225Z,71.07
2022-10-18T21:53:34.872Z,71.21
2022-10-18T21:56:37.383Z,71.62
2022-10-18T21:59:40.182Z,71.15
2022-10-18T22:02:42.777Z,71.24
2022-10-18T22:05:45.558Z,71.41
2022-10-18T22:08:51.030Z,72.61
2022-10-18T22:11:53.930Z,73.04
2022-10-18T22:14:56.531Z,72.86
2022-10-18T22:17:59.352Z,71.22
2022-10-18T22:21:05.918Z,70.89
2022-10-18T22:24:09.753Z,70.50
2022-10-18T22:27:12.227Z,70.53
2022-10-18T22:30:15.275Z,69.88
2022-10-18T22:33:18.133Z,70.29
2022-10-18T22:36:21.431Z,70.06
2022-10-18T22:39:24.674Z,69.37
2022-10-18T22:42:27.525Z,69.39
2022-10-18T22:45:30.061Z,70.36
2022-10-18T22:48:33.339Z,70.58
2022-10-18T22:51:39.581Z,70.97
2022-10-18T22:54:42.413Z,71.05
2022-10-18T22:57:44.901Z,70.75
2022-10-18T23:00:48.649Z,70.82
2022-10-18T23:03:55.743Z,69.95
2022-10-18T23:06:58.727Z,69.84
2022-10-18T23:10:01.283Z,69.99
2022-10-18T23:13:05.138Z,69.78
2022-10-18T23:16:08.165Z,70.03
2022-10-18T23:19:15.466Z,69.46
2022-10-18T23:22:21.223Z,68.90
2022-10-18T23:25:24.029Z,68.45
2022-10-18T23:28:26.661Z,68.30
2022-10-18T23:31:32.065Z,67.78
2022-10-18T23:34:34.617Z,67.34
2022-10-18T23:37:37.673Z,67.30
2022-10-18T23:40:42.054Z,67.47
2022-10-18T23:43:47.335Z,67.63
2022-10-18T23:46:49.837Z,67.70
2022-10-18T23:49:55.567Z,67.71
2022-10-18T23:52:57.959Z,67.72
2022-10-18T23:56:03.212Z,68.26
2022-10-18T23:59:05.709Z,68.73
